Time;durP1;ratioP1;P1;durP2;ratioP2;P2;SDS_P1;SDS_P2;PMS_P1;PMS_P2;Temp;Humidity;BMP_temperature;BMP_pressure;BME280_temperature;BME280_humidity;BME280_pressure;Samples;Min_cycle;Max_cycle;Signal;HPM_P1;HPM_P2
2020/12/21 00:00:20;;;;;;;141.35;37.00;;;-2.80;99.90;;;;;;4429395;28;662522;-60
2020/12/21 00:03:07;;;;;;;152.97;38.20;;;-2.80;99.90;;;;;;4458091;28;662697;-59
2020/12/21 00:05:54;;;;;;;389.77;43.53;;;-2.90;99.90;;;;;;4437030;28;661905;-61
2020/12/21 00:08:41;;;;;;;166.70;37.00;;;-2.80;99.90;;;;;;4461213;28;661459;-60
2020/12/21 00:11:36;;;;;;;181.10;41.10;;;-2.80;99.90;;;;;;4453899;28;662317;-61
2020/12/21 00:14:23;;;;;;;146.13;34.43;;;-2.90;99.90;;;;;;4423010;28;661893;-60
2020/12/21 00:17:10;;;;;;;159.93;35.45;;;-2.90;99.90;;;;;;4434518;28;661742;-61
2020/12/21 00:19:57;;;;;;;138.50;32.60;;;-2.90;99.90;;;;;;4453498;28;663910;-60
2020/12/21 00:22:44;;;;;;;104.70;30.80;;;-2.90;99.90;;;;;;4442188;28;662008;-61
2020/12/21 00:25:31;;;;;;;113.10;30.90;;;-3.00;99.90;;;;;;4453444;28;663911;-60
2020/12/21 00:28:20;;;;;;;103.37;29.60;;;-3.00;99.90;;;;;;4448012;28;662483;-60
2020/12/21 00:31:07;;;;;;;101.53;31.05;;;-3.10;99.90;;;;;;4432739;28;663336;-60
2020/12/21 00:33:54;;;;;;;105.53;30.87;;;-3.10;99.90;;;;;;4440016;28;661828;-61
2020/12/21 00:36:42;;;;;;;115.37;29.27;;;-3.20;99.90;;;;;;4457845;28;663572;-60
2020/12/21 00:39:29;;;;;;;95.20;28.83;;;-3.20;99.90;;;;;;4429522;28;661722;-62
2020/12/21 00:42:16;;;;;;;116.90;30.90;;;-3.30;99.90;;;;;;4461997;28;660334;-60
2020/12/21 00:45:04;;;;;;;86.57;27.83;;;-3.30;99.90;;;;;;4451146;28;661330;-59
2020/12/21 00:47:51;;;;;;;190.07;32.27;;;-3.20;99.90;;;;;;4436050;28;661170;-59
2020/12/21 00:50:39;;;;;;;103.40;30.97;;;-3.20;99.90;;;;;;4454980;28;661622;-61
2020/12/21 00:53:26;;;;;;;109.63;28.40;;;-3.20;99.90;;;;;;4467719;28;662603;-60
2020/12/21 00:56:14;;;;;;;112.27;31.97;;;-3.10;99.90;;;;;;4452645;28;662044;-61
2020/12/21 00:59:01;;;;;;;101.00;26.87;;;-3.20;99.90;;;;;;4459689;28;661836;-60
2020/12/21 01:01:49;;;;;;;96.03;27.23;;;-3.20;99.90;;;;;;4458038;28;662843;-60
2020/12/21 01:04:36;;;;;;;87.50;26.50;;;-3.20;99.90;;;;;;4429570;28;662067;-60
2020/12/21 01:07:23;;;;;;;92.10;27.48;;;-3.30;99.90;;;;;;4454542;28;661318;-60
2020/12/21 01:10:10;;;;;;;79.10;25.23;;;-3.40;99.90;;;;;;4433482;28;661850;-60
2020/12/21 01:12:57;;;;;;;81.53;25.53;;;-3.40;99.90;;;;;;4459203;28;662405;-60
2020/12/21 01:15:44;;;;;;;77.20;27.50;;;-3.50;99.90;;;;;;4430892;28;660735;-62
2020/12/21 01:18:32;;;;;;;79.47;25.93;;;-3.50;99.90;;;;;;4454915;28;661401;-60
2020/12/21 01:21:23;;;;;;;80.93;25.67;;;-3.50;99.90;;;;;;4448930;28;660902;-61
2020/12/21 01:24:10;;;;;;;81.60;24.27;;;-3.50;99.90;;;;;;4441169;28;660628;-60
2020/12/21 01:26:57;;;;;;;78.93;24.23;;;-3.50;99.90;;;;;;4461536;28;661955;-60
2020/12/21 01:29:44;;;;;;;72.67;24.17;;;-3.50;99.90;;;;;;4450271;28;660818;-61
2020/12/21 01:32:31;;;;;;;76.15;24.80;;;-3.50;99.90;;;;;;4460086;28;661121;-60
2020/12/21 01:35:19;;;;;;;92.50;28.23;;;-3.50;99.90;;;;;;4455181;28;661295;-60
2020/12/21 01:38:06;;;;;;;79.77;25.03;;;-3.50;99.90;;;;;;4433822;28;662446;-60
2020/12/21 01:40:53;;;;;;;86.70;28.67;;;-3.50;99.90;;;;;;4463706;28;662023;-60
2020/12/21 01:43:40;;;;;;;92.10;28.85;;;-3.50;99.90;;;;;;4437428;28;660515;-60
2020/12/21 01:46:27;;;;;;;87.73;28.17;;;-3.50;99.90;;;;;;4449782;28;661797;-60
2020/12/21 01:49:14;;;;;;;93.80;27.93;;;-3.60;99.90;;;;;;4437493;28;661074;-61
2020/12/21 01:52:02;;;;;;;93.97;28.48;;;-3.60;99.90;;;;;;4461489;28;661146;-59
2020/12/21 01:54:49;;;;;;;96.15;28.73;;;-3.60;99.90;;;;;;4435308;28;661181;-61
2020/12/21 01:57:39;;;;;;;92.40;28.53;;;-3.60;99.90;;;;;;4461661;28;660442;-59
2020/12/21 02:00:28;;;;;;;96.17;29.10;;;-3.60;99.90;;;;;;4426766;28;662576;-60
2020/12/21 02:03:15;;;;;;;93.65;25.48;;;-3.60;99.90;;;;;;4436308;28;660992;-60
2020/12/21 02:06:02;;;;;;;92.82;29.40;;;-3.60;99.90;;;;;;4456557;28;662226;-60
2020/12/21 02:08:50;;;;;;;96.63;30.67;;;-3.60;99.90;;;;;;4437196;28;660742;-62
2020/12/21 02:11:39;;;;;;;103.30;28.83;;;-3.60;99.90;;;;;;4456481;28;661578;-60
2020/12/21 02:14:26;;;;;;;85.67;28.10;;;-3.60;99.90;;;;;;4432632;28;662184;-60
2020/12/21 02:17:13;;;;;;;86.80;25.10;;;-3.60;99.90;;;;;;4447871;28;661782;-60
2020/12/21 02:20:00;;;;;;;85.73;25.93;;;-3.60;99.90;;;;;;4436713;28;660860;-60
2020/12/21 02:22:48;;;;;;;80.63;23.83;;;-3.60;99.90;;;;;;4451649;28;662625;-60
2020/12/21 02:25:35;;;;;;;89.13;25.33;;;-3.60;99.90;;;;;;4435675;28;660675;-59
2020/12/21 02:28:22;;;;;;;83.10;24.80;;;-3.70;99.90;;;;;;4457718;28;661780;-59
2020/12/21 02:31:09;;;;;;;73.95;24.10;;;-3.70;99.90;;;;;;4436755;28;663541;-61
2020/12/21 02:33:56;;;;;;;79.57;25.07;;;-3.60;99.90;;;;;;4464808;28;660028;-60
2020/12/21 02:36:44;;;;;;;82.73;25.20;;;-3.60;99.90;;;;;;4452794;28;661360;-60
2020/12/21 02:39:32;;;;;;;78.73;25.30;;;-3.60;99.90;;;;;;4438307;28;661427;-61
2020/12/21 02:42:19;;;;;;;88.23;26.00;;;-3.60;99.90;;;;;;4437957;28;661657;-61
2020/12/21 02:45:06;;;;;;;82.27;27.03;;;-3.50;99.90;;;;;;4452577;28;662376;-60
2020/12/21 02:47:53;;;;;;;88.20;26.97;;;-3.50;99.90;;;;;;4455858;28;661207;-59
2020/12/21 02:50:40;;;;;;;86.40;25.97;;;-3.50;99.90;;;;;;4439370;28;660679;-60
2020/12/21 02:53:27;;;;;;;85.97;28.13;;;-3.40;99.90;;;;;;4457604;28;662708;-59
2020/12/21 02:56:15;;;;;;;84.23;27.10;;;-3.40;99.90;;;;;;4445370;28;660720;-62
2020/12/21 02:59:02;;;;;;;85.73;27.47;;;-3.30;99.90;;;;;;4458005;28;661771;-60
2020/12/21 03:01:49;;;;;;;94.03;29.05;;;-3.30;99.90;;;;;;4441675;28;660814;-61
2020/12/21 03:04:36;;;;;;;89.28;28.90;;;-3.30;99.90;;;;;;4458798;28;661919;-60
2020/12/21 03:07:23;;;;;;;88.73;29.57;;;-3.30;99.90;;;;;;4462122;28;660955;-60
2020/12/21 03:10:10;;;;;;;88.73;27.40;;;-3.20;99.90;;;;;;4441434;28;662297;-60
2020/12/21 03:12:58;;;;;;;85.27;27.90;;;-3.10;99.90;;;;;;4466756;28;661674;-60
2020/12/21 03:15:45;;;;;;;93.50;29.70;;;-3.10;99.90;;;;;;4438856;28;660703;-60
2020/12/21 03:18:32;;;;;;;82.40;28.37;;;-3.10;99.90;;;;;;4449471;28;661733;-60
2020/12/21 03:21:19;;;;;;;95.27;28.93;;;-3.00;99.90;;;;;;4429271;28;660926;-62
2020/12/21 03:24:06;;;;;;;103.77;34.43;;;-3.00;99.90;;;;;;4455176;28;661313;-60
2020/12/21 03:26:53;;;;;;;97.77;31.57;;;-2.90;99.90;;;;;;4449561;28;662035;-60
2020/12/21 03:29:41;;;;;;;89.28;28.23;;;-2.90;99.90;;;;;;4425401;28;660686;-60
2020/12/21 03:32:27;;;;;;;92.20;31.30;;;-2.80;99.90;;;;;;4454859;28;661009;-60
2020/12/21 03:35:14;;;;;;;143.30;44.70;;;-2.80;99.90;;;;;;4436322;28;661321;-60
2020/12/21 03:38:01;;;;;;;156.57;47.40;;;-2.80;99.90;;;;;;4446523;28;662909;-59
2020/12/21 03:40:48;;;;;;;156.90;43.73;;;-2.70;99.90;;;;;;4460998;28;663512;-59
2020/12/21 03:43:35;;;;;;;167.53;51.73;;;-2.70;99.90;;;;;;4439964;28;662378;-60
2020/12/21 03:46:23;;;;;;;154.20;49.03;;;-2.60;99.90;;;;;;4454810;28;662586;-59
2020/12/21 03:49:10;;;;;;;158.32;49.45;;;-2.50;99.90;;;;;;4439264;28;662655;-59
2020/12/21 03:51:57;;;;;;;130.93;42.57;;;-2.50;99.90;;;;;;4452900;28;663408;-60
2020/12/21 03:54:44;;;;;;;131.70;42.33;;;-2.50;99.90;;;;;;4437589;28;661776;-61
2020/12/21 03:57:31;;;;;;;112.63;35.13;;;-2.50;99.90;;;;;;4455714;28;662833;-60
2020/12/21 04:00:19;;;;;;;122.87;39.87;;;-2.40;99.90;;;;;;4463052;28;661889;-60
2020/12/21 04:03:07;;;;;;;121.73;40.23;;;-2.40;99.90;;;;;;4433175;28;662772;-60
2020/12/21 04:05:54;;;;;;;125.63;38.33;;;-2.30;99.90;;;;;;4445501;28;661656;-61
2020/12/21 04:08:41;;;;;;;109.87;38.03;;;-2.20;99.90;;;;;;4456224;28;662674;-60
2020/12/21 04:11:28;;;;;;;122.67;38.40;;;-2.20;99.90;;;;;;4459270;28;663262;-59
2020/12/21 04:14:15;;;;;;;94.97;34.05;;;-2.00;99.90;;;;;;4438049;28;663039;-60
2020/12/21 04:17:02;;;;;;;116.38;36.47;;;-2.10;99.90;;;;;;4456867;28;661978;-61
2020/12/21 04:19:50;;;;;;;108.47;36.07;;;-2.10;99.90;;;;;;4443732;28;662036;-62
2020/12/21 04:22:37;;;;;;;100.70;35.20;;;-2.10;99.90;;;;;;4455789;28;663177;-60
2020/12/21 04:25:24;;;;;;;97.20;33.40;;;-2.10;99.90;;;;;;4446959;28;661885;-61
2020/12/21 04:28:11;;;;;;;128.27;41.07;;;-2.00;99.90;;;;;;4457522;28;662151;-59
2020/12/21 04:31:00;;;;;;;118.43;39.47;;;-2.00;99.90;;;;;;4456101;28;662191;-60
2020/12/21 04:33:48;;;;;;;121.63;39.40;;;-2.00;99.90;;;;;;4439059;28;664261;-59
2020/12/21 04:36:36;;;;;;;111.03;40.40;;;-2.00;99.90;;;;;;4436210;28;662971;-60
2020/12/21 04:39:22;;;;;;;112.20;40.47;;;-1.90;99.90;;;;;;4457681;28;662275;-59
2020/12/21 04:42:09;;;;;;;121.50;40.67;;;-1.90;99.90;;;;;;4442738;28;662105;-62
2020/12/21 04:44:56;;;;;;;122.70;41.53;;;-1.90;99.90;;;;;;4454812;28;662630;-60
2020/12/21 04:47:43;;;;;;;135.53;43.00;;;-1.80;99.90;;;;;;4461252;28;661569;-60
2020/12/21 04:50:32;;;;;;;133.80;43.43;;;-1.80;99.90;;;;;;4439411;28;662356;-60
2020/12/21 04:53:20;;;;;;;127.67;44.27;;;-1.70;99.90;;;;;;4455555;28;661597;-61
2020/12/21 04:56:07;;;;;;;126.90;43.83;;;-1.70;99.90;;;;;;4453810;28;662814;-59
2020/12/21 04:58:54;;;;;;;140.70;43.27;;;-1.70;99.90;;;;;;4434976;28;663320;-62
2020/12/21 05:01:41;;;;;;;133.90;43.65;;;-1.60;99.90;;;;;;4457848;28;661580;-60
2020/12/21 05:04:28;;;;;;;120.20;42.92;;;-1.50;99.90;;;;;;4460348;28;661220;-60
2020/12/21 05:07:15;;;;;;;121.90;41.70;;;-1.50;99.90;;;;;;4438929;28;661689;-60
2020/12/21 05:10:07;;;;;;;127.43;43.90;;;-1.50;99.90;;;;;;4458156;28;662504;-60
2020/12/21 05:13:01;;;;;;;135.70;49.92;;;-1.50;99.90;;;;;;4420680;28;662329;-61
2020/12/21 05:15:50;;;;;;;146.80;53.50;;;-1.40;99.90;;;;;;4437856;28;661771;-60
2020/12/21 05:18:37;;;;;;;157.25;52.17;;;-1.40;99.90;;;;;;4426854;28;662963;-59
2020/12/21 05:21:27;;;;;;;159.80;53.23;;;-1.50;99.90;;;;;;4436554;28;661665;-61
2020/12/21 05:24:21;;;;;;;162.53;56.97;;;-1.50;99.90;;;;;;4442944;28;661703;-62
2020/12/21 05:27:13;;;;;;;166.33;55.03;;;-1.50;99.90;;;;;;4427707;28;662037;-60
2020/12/21 05:30:00;;;;;;;150.47;52.53;;;-1.50;99.90;;;;;;4430318;28;662579;-61
2020/12/21 05:32:47;;;;;;;160.80;55.53;;;-1.40;99.90;;;;;;4449789;28;662130;-60
2020/12/21 05:35:34;;;;;;;164.70;56.77;;;-1.40;99.90;;;;;;4447415;28;661694;-61
2020/12/21 05:38:23;;;;;;;156.37;54.20;;;-1.30;99.90;;;;;;4456204;28;661513;-59
2020/12/21 05:41:10;;;;;;;171.13;57.87;;;-1.30;99.90;;;;;;4444373;28;661836;-60
2020/12/21 05:44:05;;;;;;;163.97;55.27;;;-1.30;99.90;;;;;;4452156;28;662197;-60
2020/12/21 05:46:52;;;;;;;172.07;56.92;;;-1.20;99.90;;;;;;4432444;28;662132;-59
2020/12/21 05:49:39;;;;;;;173.93;58.73;;;-1.20;99.90;;;;;;4434694;28;661691;-61
2020/12/21 05:52:33;;;;;;;178.97;57.83;;;-1.20;99.90;;;;;;4450861;28;661471;-59
2020/12/21 05:55:21;;;;;;;169.67;55.70;;;-1.20;99.90;;;;;;4443374;28;661793;-61
2020/12/21 05:58:08;;;;;;;203.27;71.43;;;-1.20;99.90;;;;;;4453128;28;662015;-60
2020/12/21 06:00:56;;;;;;;150.57;55.27;;;-1.10;99.90;;;;;;4444224;28;661851;-61
2020/12/21 06:03:45;;;;;;;127.13;45.55;;;-1.10;99.90;;;;;;4452470;28;662066;-59
2020/12/21 06:06:32;;;;;;;124.60;44.50;;;-1.10;99.90;;;;;;4432396;28;663034;-60
2020/12/21 06:09:19;;;;;;;118.03;41.03;;;-1.10;99.90;;;;;;4439776;28;662230;-60
2020/12/21 06:12:06;;;;;;;112.67;41.03;;;-1.20;99.90;;;;;;4455129;28;663521;-60
2020/12/21 06:14:57;;;;;;;107.17;38.60;;;-1.10;99.90;;;;;;4451917;28;662571;-62
2020/12/21 06:17:45;;;;;;;110.75;37.35;;;-1.20;99.90;;;;;;4429729;28;662010;-62
2020/12/21 06:20:41;;;;;;;107.83;38.43;;;-1.20;99.90;;;;;;4454822;28;662838;-59
2020/12/21 06:23:37;;;;;;;117.77;41.33;;;-1.20;99.90;;;;;;4458561;28;661827;-62
2020/12/21 06:26:34;;;;;;;123.27;41.93;;;-1.20;99.90;;;;;;4419786;28;661561;-61
2020/12/21 06:29:22;;;;;;;128.48;42.70;;;-1.20;99.90;;;;;;4409813;28;662445;-60
2020/12/21 06:32:09;;;;;;;142.15;46.85;;;-1.10;99.90;;;;;;4436800;28;662293;-61
2020/12/21 06:34:57;;;;;;;131.30;45.27;;;-1.10;99.90;;;;;;4455707;28;662783;-61
2020/12/21 06:37:59;;;;;;;124.63;43.00;;;-1.10;99.90;;;;;;4435031;28;661586;-61
2020/12/21 06:40:46;;;;;;;118.83;42.07;;;-1.10;99.90;;;;;;4408507;28;663113;-60
2020/12/21 06:43:33;;;;;;;114.90;42.57;;;-1.10;99.90;;;;;;4454640;28;662185;-60
2020/12/21 06:46:20;;;;;;;130.47;45.63;;;-1.10;99.90;;;;;;4432914;28;663733;-60
2020/12/21 06:49:11;;;;;;;129.03;46.33;;;-1.10;99.90;;;;;;4459985;28;662318;-60
2020/12/21 06:52:00;;;;;;;131.00;44.92;;;-1.10;99.90;;;;;;4422330;28;663035;-61
2020/12/21 06:54:50;;;;;;;135.50;47.10;;;-1.10;99.90;;;;;;4445877;28;662994;-61
2020/12/21 06:57:37;;;;;;;133.00;46.70;;;-1.00;99.90;;;;;;4431188;28;663963;-60
2020/12/21 07:00:24;;;;;;;134.40;48.03;;;-1.00;99.90;;;;;;4435854;28;662612;-61
2020/12/21 07:03:11;;;;;;;139.93;48.30;;;-0.90;99.90;;;;;;4448644;27;663442;-60
2020/12/21 07:05:59;;;;;;;155.30;52.40;;;-0.90;99.90;;;;;;4454102;28;662089;-62
2020/12/21 07:08:47;;;;;;;194.43;58.30;;;-0.80;99.90;;;;;;4460602;28;661729;-61
2020/12/21 07:11:34;;;;;;;209.20;65.38;;;-0.80;99.90;;;;;;4434750;27;662795;-62
2020/12/21 07:14:21;;;;;;;207.35;67.80;;;-0.80;99.90;;;;;;4451015;28;662312;-60
2020/12/21 07:17:10;;;;;;;175.97;58.27;;;-0.70;99.90;;;;;;4457854;28;661304;-61
2020/12/21 07:19:58;;;;;;;205.93;62.92;;;-0.70;99.90;;;;;;4427476;28;662627;-60
2020/12/21 07:22:45;;;;;;;156.73;51.03;;;-0.60;99.90;;;;;;4437704;28;662489;-60
2020/12/21 07:25:33;;;;;;;158.33;54.47;;;-0.40;99.90;;;;;;4458711;28;662182;-60
2020/12/21 07:28:23;;;;;;;161.83;55.17;;;-0.50;99.90;;;;;;4434541;28;661749;-60
2020/12/21 07:31:11;;;;;;;164.87;56.90;;;-0.50;99.90;;;;;;4426564;28;662044;-61
2020/12/21 07:33:58;;;;;;;199.20;69.93;;;-0.40;99.90;;;;;;4447557;28;662393;-60
2020/12/21 07:36:45;;;;;;;239.00;80.00;;;-0.40;99.90;;;;;;4426845;28;662314;-60
2020/12/21 07:39:32;;;;;;;201.50;70.93;;;-0.40;99.90;;;;;;4456229;28;663862;-60
2020/12/21 07:42:20;;;;;;;164.50;55.95;;;-0.40;99.90;;;;;;4434465;28;661639;-61
2020/12/21 07:45:07;;;;;;;157.97;56.27;;;-0.30;99.90;;;;;;4449794;28;662967;-60
2020/12/21 07:47:54;;;;;;;191.17;64.43;;;-0.30;99.90;;;;;;4427231;28;662858;-62
2020/12/21 07:50:42;;;;;;;185.07;61.83;;;-0.30;99.90;;;;;;4458043;28;661448;-60
2020/12/21 07:53:40;;;;;;;180.60;61.33;;;-0.20;99.90;;;;;;4432379;28;663109;-62
2020/12/21 07:56:27;;;;;;;159.18;54.67;;;-0.20;99.90;;;;;;4423406;28;661741;-60
2020/12/21 07:59:18;;;;;;;153.67;53.23;;;-0.20;99.90;;;;;;4427562;28;661811;-60
2020/12/21 08:02:06;;;;;;;158.98;55.10;;;-0.20;99.90;;;;;;4430326;28;662140;-60
2020/12/21 08:04:53;;;;;;;161.93;58.27;;;-0.10;99.90;;;;;;4443967;28;662164;-60
2020/12/21 08:07:40;;;;;;;158.33;56.60;;;-0.10;99.90;;;;;;4425540;28;661849;-60
2020/12/21 08:10:27;;;;;;;162.60;55.50;;;0.00;99.90;;;;;;4449751;28;663169;-60
2020/12/21 08:13:17;;;;;;;169.23;60.63;;;0.00;99.90;;;;;;4441781;28;660474;-63
2020/12/21 08:16:06;;;;;;;170.03;60.50;;;0.10;99.90;;;;;;4430087;28;660807;-62
2020/12/21 08:18:53;;;;;;;152.27;56.10;;;0.10;99.90;;;;;;4456684;28;662299;-60
2020/12/21 08:21:40;;;;;;;166.47;57.60;;;0.20;99.90;;;;;;4430637;28;660791;-62
2020/12/21 08:24:27;;;;;;;171.53;62.17;;;0.20;99.90;;;;;;4448141;28;662255;-60
2020/12/21 08:27:19;;;;;;;169.07;60.90;;;0.20;99.90;;;;;;4430772;28;660814;-61
2020/12/21 08:30:09;;;;;;;191.23;67.23;;;0.30;99.90;;;;;;4431386;28;662155;-60
2020/12/21 08:32:58;;;;;;;169.57;61.25;;;0.30;99.90;;;;;;4428746;28;662421;-61
2020/12/21 08:35:45;;;;;;;183.93;66.37;;;0.40;99.90;;;;;;4437206;28;660946;-61
2020/12/21 08:38:32;;;;;;;195.67;67.77;;;0.40;99.90;;;;;;4446879;28;660873;-61
2020/12/21 08:41:20;;;;;;;189.13;63.63;;;0.40;99.90;;;;;;4427279;28;660476;-60
2020/12/21 08:44:08;;;;;;;176.50;62.27;;;0.40;99.90;;;;;;4456344;28;661268;-61
2020/12/21 08:46:56;;;;;;;191.10;68.13;;;0.50;99.90;;;;;;4437518;28;661546;-60
2020/12/21 08:49:44;;;;;;;181.27;66.37;;;0.50;99.90;;;;;;4454919;28;660670;-60
2020/12/21 08:52:32;;;;;;;198.60;68.77;;;0.60;99.90;;;;;;4433140;28;662336;-60
2020/12/21 08:55:19;;;;;;;199.27;70.43;;;0.60;99.90;;;;;;4441465;27;660666;-61
2020/12/21 08:58:06;;;;;;;334.33;108.85;;;0.70;99.90;;;;;;4464330;28;661631;-60
2020/12/21 09:00:54;;;;;;;265.90;88.77;;;0.70;99.90;;;;;;4429648;28;661753;-62
2020/12/21 09:03:41;;;;;;;224.53;78.57;;;0.70;99.90;;;;;;4457158;28;662031;-60
2020/12/21 09:06:29;;;;;;;227.60;79.60;;;0.80;99.90;;;;;;4449783;28;660994;-61
2020/12/21 09:09:16;;;;;;;205.23;71.63;;;0.80;99.90;;;;;;4437018;28;660428;-60
2020/12/21 09:12:03;;;;;;;245.52;89.28;;;0.80;99.90;;;;;;4450684;27;661057;-61
2020/12/21 09:14:50;;;;;;;239.77;88.70;;;0.90;99.90;;;;;;4430430;28;660780;-61
2020/12/21 09:17:37;;;;;;;279.37;108.33;;;1.00;99.90;;;;;;4457132;28;661515;-61
2020/12/21 09:20:24;;;;;;;303.13;114.67;;;0.90;99.90;;;;;;4427683;28;661491;-62
2020/12/21 09:23:12;;;;;;;310.43;116.87;;;1.00;99.90;;;;;;4449219;28;663343;-61
2020/12/21 09:25:59;;;;;;;325.07;121.17;;;1.00;99.90;;;;;;4435421;28;661616;-61
2020/12/21 09:28:46;;;;;;;319.30;119.07;;;1.00;99.90;;;;;;4461008;28;663123;-60
2020/12/21 09:31:34;;;;;;;305.43;116.13;;;1.10;99.90;;;;;;4446708;28;661855;-62
2020/12/21 09:34:21;;;;;;;241.73;93.83;;;1.10;99.90;;;;;;4458163;28;661816;-61
2020/12/21 09:37:08;;;;;;;237.73;93.28;;;1.10;99.90;;;;;;4447963;28;661522;-61
2020/12/21 09:39:56;;;;;;;266.43;97.80;;;1.20;99.90;;;;;;4437261;28;660809;-61
2020/12/21 09:42:43;;;;;;;247.85;97.47;;;1.20;99.90;;;;;;4448449;28;661734;-61
2020/12/21 09:45:30;;;;;;;247.53;94.43;;;1.30;99.90;;;;;;4435905;28;660876;-61
2020/12/21 09:48:28;;;;;;;255.43;96.07;;;1.50;99.90;;;;;;4455534;28;662290;-61
2020/12/21 09:51:25;;;;;;;307.43;111.47;;;1.50;99.90;;;;;;4445574;28;662074;-61
2020/12/21 09:54:12;;;;;;;278.30;105.03;;;1.50;99.90;;;;;;4427988;28;661760;-61
2020/12/21 09:57:01;;;;;;;261.13;100.90;;;1.60;99.90;;;;;;4431560;28;661867;-62
2020/12/21 09:59:48;;;;;;;169.37;63.50;;;1.60;99.90;;;;;;4455729;28;662014;-61
2020/12/21 10:02:35;;;;;;;152.27;61.50;;;1.60;99.90;;;;;;4429985;28;660944;-61
2020/12/21 10:05:22;;;;;;;159.60;63.00;;;1.50;99.90;;;;;;4456441;28;662215;-61
2020/12/21 10:08:09;;;;;;;199.03;77.60;;;1.50;99.90;;;;;;4440059;28;660421;-62
2020/12/21 10:10:56;;;;;;;167.17;63.30;;;1.50;99.90;;;;;;4467510;28;660485;-61
2020/12/21 10:13:44;;;;;;;148.07;55.83;;;1.50;99.90;;;;;;4455004;28;661283;-61
2020/12/21 10:16:31;;;;;;;152.80;53.67;;;1.60;99.90;;;;;;4432717;28;661339;-61
2020/12/21 10:19:18;;;;;;;170.50;59.93;;;1.70;99.90;;;;;;4456004;28;661927;-61
2020/12/21 10:22:05;;;;;;;174.00;62.40;;;1.80;99.90;;;;;;4435106;28;661006;-61
2020/12/21 10:24:52;;;;;;;197.47;68.67;;;1.90;99.90;;;;;;4449590;28;661715;-60
2020/12/21 10:27:39;;;;;;;193.03;66.97;;;2.00;99.90;;;;;;4434802;28;660939;-62
2020/12/21 10:30:28;;;;;;;199.30;73.15;;;2.10;99.90;;;;;;4455968;28;660020;-60
2020/12/21 10:33:15;;;;;;;188.50;68.50;;;2.20;99.90;;;;;;4433499;28;661374;-61
2020/12/21 10:36:02;;;;;;;170.60;63.00;;;2.30;99.90;;;;;;4454055;28;662344;-60
2020/12/21 10:38:49;;;;;;;138.73;52.92;;;2.30;99.90;;;;;;4435671;28;661349;-61
2020/12/21 10:41:36;;;;;;;149.53;54.93;;;2.30;99.90;;;;;;4448913;28;662662;-60
2020/12/21 10:44:24;;;;;;;133.70;50.10;;;2.30;99.90;;;;;;4453892;28;660425;-62
2020/12/21 10:47:12;;;;;;;168.90;69.63;;;2.30;99.90;;;;;;4458830;28;660380;-60
2020/12/21 10:49:59;;;;;;;149.23;56.13;;;2.20;99.90;;;;;;4441666;28;661091;-62
2020/12/21 10:52:46;;;;;;;160.87;57.97;;;2.30;99.90;;;;;;4455622;28;660684;-60
2020/12/21 10:55:33;;;;;;;183.30;64.27;;;2.60;99.90;;;;;;4452706;28;661113;-60
2020/12/21 10:58:20;;;;;;;175.00;62.50;;;3.40;99.90;;;;;;4429248;28;661076;-61
2020/12/21 11:01:07;;;;;;;133.03;52.70;;;3.90;99.90;;;;;;4451364;28;661821;-61
2020/12/21 11:03:55;;;;;;;122.37;48.07;;;3.80;99.90;;;;;;4433574;28;660571;-61
2020/12/21 11:06:42;;;;;;;130.80;48.30;;;3.90;99.90;;;;;;4455926;28;662119;-60
2020/12/21 11:09:29;;;;;;;108.17;44.60;;;4.60;99.90;;;;;;4435009;28;660739;-61
2020/12/21 11:12:17;;;;;;;123.27;50.47;;;4.90;99.90;;;;;;4460840;28;661443;-60
2020/12/21 11:15:05;;;;;;;108.57;44.23;;;5.40;99.90;;;;;;4429492;28;661143;-60
2020/12/21 11:17:51;;;;;;;100.33;41.10;;;6.40;99.90;;;;;;4457035;28;661823;-61
2020/12/21 11:20:40;;;;;;;87.17;37.70;;;6.80;99.90;;;;;;4455876;28;662586;-62
2020/12/21 11:23:27;;;;;;;93.30;36.60;;;6.70;99.90;;;;;;4459497;28;660361;-60
2020/12/21 11:26:14;;;;;;;80.88;34.00;;;6.30;99.90;;;;;;4436657;28;660424;-61
2020/12/21 11:29:03;;;;;;;87.03;35.35;;;5.90;99.90;;;;;;4458190;28;660311;-60
2020/12/21 11:31:50;;;;;;;102.27;39.53;;;5.50;99.90;;;;;;4435679;28;660156;-61
2020/12/21 11:34:37;;;;;;;108.80;40.30;;;5.00;99.90;;;;;;4452472;28;661004;-61
2020/12/21 11:37:25;;;;;;;102.20;38.03;;;4.70;99.90;;;;;;4435604;28;661530;-61
2020/12/21 11:40:12;;;;;;;155.93;41.00;;;4.60;99.90;;;;;;4449067;28;661670;-61
2020/12/21 11:42:59;;;;;;;116.27;38.83;;;4.60;99.90;;;;;;4438374;28;660679;-62
2020/12/21 11:45:47;;;;;;;112.03;36.33;;;4.50;99.90;;;;;;4460940;28;662039;-60
2020/12/21 11:48:34;;;;;;;109.43;39.77;;;4.30;99.90;;;;;;4443447;28;660663;-61
2020/12/21 11:51:21;;;;;;;107.97;41.17;;;4.20;99.90;;;;;;4452743;28;662764;-61
2020/12/21 11:54:09;;;;;;;137.13;50.03;;;4.10;99.90;;;;;;4449228;28;660430;-61
2020/12/21 11:56:56;;;;;;;154.03;61.17;;;4.00;99.90;;;;;;4427305;28;661227;-61
2020/12/21 11:59:43;;;;;;;116.20;44.90;;;3.90;99.90;;;;;;4451052;28;660839;-61
2020/12/21 12:02:30;;;;;;;114.10;44.17;;;3.80;99.90;;;;;;4434715;28;662664;-61
2020/12/21 12:05:17;;;;;;;95.93;39.30;;;3.70;99.90;;;;;;4458647;28;661940;-61
2020/12/21 12:08:04;;;;;;;102.57;39.30;;;3.60;99.90;;;;;;4433882;28;659698;-62
2020/12/21 12:10:52;;;;;;;127.10;46.03;;;3.50;99.90;;;;;;4459736;28;660429;-62
2020/12/21 12:13:42;;;;;;;155.80;52.03;;;3.30;99.90;;;;;;4432667;28;661662;-62
2020/12/21 12:16:29;;;;;;;176.30;55.50;;;3.30;99.90;;;;;;4449728;28;660590;-62
2020/12/21 12:19:16;;;;;;;133.83;46.27;;;3.30;99.90;;;;;;4456870;28;660606;-61
2020/12/21 12:22:03;;;;;;;120.17;43.20;;;3.20;99.90;;;;;;4454997;28;660520;-61
2020/12/21 12:24:50;;;;;;;109.57;39.90;;;3.20;99.90;;;;;;4434575;28;660792;-61
2020/12/21 12:27:38;;;;;;;111.73;42.03;;;3.20;99.90;;;;;;4457321;28;661086;-62
2020/12/21 12:30:25;;;;;;;114.67;41.43;;;3.30;99.90;;;;;;4440372;28;662196;-62
2020/12/21 12:33:12;;;;;;;98.07;36.27;;;3.30;99.90;;;;;;4455588;28;661898;-61
2020/12/21 12:35:59;;;;;;;101.53;38.17;;;3.30;99.90;;;;;;4449315;28;660680;-62
2020/12/21 12:38:46;;;;;;;108.13;41.73;;;3.30;99.90;;;;;;4455116;28;661686;-61
2020/12/21 12:41:37;;;;;;;119.30;47.63;;;3.30;99.90;;;;;;4458489;28;661452;-61
2020/12/21 12:44:25;;;;;;;125.43;50.47;;;3.20;99.90;;;;;;4411339;28;660609;-62
2020/12/21 12:47:12;;;;;;;136.17;53.90;;;3.20;99.90;;;;;;4452063;28;661392;-61
2020/12/21 12:49:59;;;;;;;124.07;49.00;;;3.20;99.90;;;;;;4438553;28;660395;-62
2020/12/21 12:52:46;;;;;;;126.53;49.80;;;3.30;99.90;;;;;;4459254;28;660697;-61
2020/12/21 12:55:33;;;;;;;114.83;45.27;;;3.20;99.90;;;;;;4457361;28;660779;-61
2020/12/21 12:58:20;;;;;;;121.10;47.30;;;3.20;99.90;;;;;;4435838;28;660712;-62
2020/12/21 13:01:08;;;;;;;114.63;45.87;;;3.20;99.90;;;;;;4457677;28;661608;-62
2020/12/21 13:03:55;;;;;;;122.15;45.75;;;3.20;99.90;;;;;;4441086;28;660699;-62
2020/12/21 13:06:43;;;;;;;121.50;46.10;;;3.10;99.90;;;;;;4457580;28;660468;-61
2020/12/21 13:09:30;;;;;;;133.10;49.33;;;3.10;99.90;;;;;;4439271;28;660587;-61
2020/12/21 13:12:17;;;;;;;122.37;47.37;;;3.10;99.90;;;;;;4452722;28;662829;-61
2020/12/21 13:15:04;;;;;;;140.83;52.73;;;3.10;99.90;;;;;;4438976;28;660669;-62
2020/12/21 13:17:52;;;;;;;147.15;56.47;;;3.10;99.90;;;;;;4455554;28;661227;-61
2020/12/21 13:20:39;;;;;;;172.60;62.80;;;3.10;99.90;;;;;;4443448;28;660979;-62
2020/12/21 13:23:26;;;;;;;151.90;59.57;;;3.10;99.90;;;;;;4451249;28;662050;-61
2020/12/21 13:26:17;;;;;;;162.93;62.47;;;3.00;99.90;;;;;;4460121;28;660906;-61
2020/12/21 13:29:04;;;;;;;165.60;64.93;;;3.00;99.90;;;;;;4419798;28;660439;-62
2020/12/21 13:31:51;;;;;;;176.50;66.60;;;3.00;99.90;;;;;;4460154;28;660629;-61
2020/12/21 13:34:39;;;;;;;171.17;65.13;;;3.00;99.90;;;;;;4455064;28;662008;-61
2020/12/21 13:37:26;;;;;;;151.20;58.93;;;3.00;99.90;;;;;;4430053;28;661427;-61
2020/12/21 13:40:17;;;;;;;173.17;65.70;;;3.00;99.90;;;;;;4451786;28;661714;-61
2020/12/21 13:43:04;;;;;;;155.17;60.90;;;2.90;99.90;;;;;;4421775;28;661794;-62
2020/12/21 13:45:51;;;;;;;205.83;77.50;;;2.80;99.90;;;;;;4459343;28;661160;-61
2020/12/21 13:48:38;;;;;;;193.73;72.70;;;2.80;99.90;;;;;;4449708;28;661108;-61
2020/12/21 13:51:26;;;;;;;193.93;71.43;;;2.80;99.90;;;;;;4438608;28;660702;-61
2020/12/21 13:54:14;;;;;;;198.27;74.80;;;2.70;99.90;;;;;;4449826;28;661540;-62